sensor_id;sensor_type;location;lat;lon;timestamp;temperature;humidity
25192;DHT22;13143;50.924;5.320;2023-03-25T00:01:59;11.60;99.90
25192;DHT22;13143;50.924;5.320;2023-03-25T00:04:27;11.60;99.90
25192;DHT22;13143;50.924;5.320;2023-03-25T00:06:55;11.50;99.90
25192;DHT22;13143;50.924;5.320;2023-03-25T00:09:24;11.60;99.90
25192;DHT22;13143;50.924;5.320;2023-03-25T00:11:50;11.60;99.90
25192;DHT22;13143;50.924;5.320;2023-03-25T00:14:16;11.60;99.90
25192;DHT22;13143;50.924;5.320;2023-03-25T00:16:42;11.50;99.90
25192;DHT22;13143;50.924;5.320;2023-03-25T00:19:15;11.50;99.90
25192;DHT22;13143;50.924;5.320;2023-03-25T00:21:41;11.50;99.90
25192;DHT22;13143;50.924;5.320;2023-03-25T00:24:10;11.50;99.90
25192;DHT22;13143;50.924;5.320;2023-03-25T00:26:46;11.40;99.90
25192;DHT22;13143;50.924;5.320;2023-03-25T00:29:13;11.40;99.90
25192;DHT22;13143;50.924;5.320;2023-03-25T00:31:40;11.40;99.90
25192;DHT22;13143;50.924;5.320;2023-03-25T00:34:06;11.40;99.90
25192;DHT22;13143;50.924;5.320;2023-03-25T00:36:33;11.40;99.90
25192;DHT22;13143;50.924;5.320;2023-03-25T00:39:05;11.40;99.90
25192;DHT22;13143;50.924;5.320;2023-03-25T00:41:30;11.40;99.90
25192;DHT22;13143;50.924;5.320;2023-03-25T00:43:58;11.40;99.90
25192;DHT22;13143;50.924;5.320;2023-03-25T00:46:26;11.30;99.90
25192;DHT22;13143;50.924;5.320;2023-03-25T00:48:52;11.30;99.90
25192;DHT22;13143;50.924;5.320;2023-03-25T00:51:19;11.30;99.90
25192;DHT22;13143;50.924;5.320;2023-03-25T00:53:51;11.30;99.90
25192;DHT22;13143;50.924;5.320;2023-03-25T00:56:18;11.30;99.90
25192;DHT22;13143;50.924;5.320;2023-03-25T00:58:44;11.30;99.90
25192;DHT22;13143;50.924;5.320;2023-03-25T01:01:11;11.30;99.90
25192;DHT22;13143;50.924;5.320;2023-03-25T01:03:39;11.20;99.90
25192;DHT22;13143;50.924;5.320;2023-03-25T01:06:12;11.30;99.90
25192;DHT22;13143;50.924;5.320;2023-03-25T01:08:38;11.30;99.90
25192;DHT22;13143;50.924;5.320;2023-03-25T01:11:05;11.20;99.90
25192;DHT22;13143;50.924;5.320;2023-03-25T01:13:31;11.30;99.90
25192;DHT22;13143;50.924;5.320;2023-03-25T01:15:57;11.20;99.90
25192;DHT22;13143;50.924;5.320;2023-03-25T01:18:22;11.20;99.90
25192;DHT22;13143;50.924;5.320;2023-03-25T01:20:48;11.20;99.90
25192;DHT22;13143;50.924;5.320;2023-03-25T01:23:14;11.20;99.90
25192;DHT22;13143;50.924;5.320;2023-03-25T01:25:40;11.10;99.90
25192;DHT22;13143;50.924;5.320;2023-03-25T01:28:05;11.10;99.90
25192;DHT22;13143;50.924;5.320;2023-03-25T01:30:32;11.10;99.90
25192;DHT22;13143;50.924;5.320;2023-03-25T01:32:58;11.10;99.90
25192;DHT22;13143;50.924;5.320;2023-03-25T01:35:23;11.10;99.90
25192;DHT22;13143;50.924;5.320;2023-03-25T01:37:49;11.10;99.90
25192;DHT22;13143;50.924;5.320;2023-03-25T01:40:20;11.10;99.90
25192;DHT22;13143;50.924;5.320;2023-03-25T01:42:47;11.10;99.90
25192;DHT22;13143;50.924;5.320;2023-03-25T01:45:28;11.10;99.90
25192;DHT22;13143;50.924;5.320;2023-03-25T01:48:01;11.10;99.90
25192;DHT22;13143;50.924;5.320;2023-03-25T01:50:29;11.10;99.90
25192;DHT22;13143;50.924;5.320;2023-03-25T01:52:57;11.00;99.90
25192;DHT22;13143;50.924;5.320;2023-03-25T01:55:26;11.00;99.90
25192;DHT22;13143;50.924;5.320;2023-03-25T01:57:53;11.00;99.90
25192;DHT22;13143;50.924;5.320;2023-03-25T02:00:21;11.00;99.90
25192;DHT22;13143;50.924;5.320;2023-03-25T02:02:47;11.00;99.90
25192;DHT22;13143;50.924;5.320;2023-03-25T02:05:20;11.00;99.90
25192;DHT22;13143;50.924;5.320;2023-03-25T02:07:48;11.00;99.90
25192;DHT22;13143;50.924;5.320;2023-03-25T02:10:14;11.00;99.90
25192;DHT22;13143;50.924;5.320;2023-03-25T02:12:40;11.00;99.90
25192;DHT22;13143;50.924;5.320;2023-03-25T02:15:08;11.00;99.90
25192;DHT22;13143;50.924;5.320;2023-03-25T02:42:18;10.90;99.90
25192;DHT22;13143;50.924;5.320;2023-03-25T02:44:54;10.90;99.90
25192;DHT22;13143;50.924;5.320;2023-03-25T02:47:23;10.90;99.90
25192;DHT22;13143;50.924;5.320;2023-03-25T02:49:53;10.90;99.90
25192;DHT22;13143;50.924;5.320;2023-03-25T02:52:34;10.90;99.90
25192;DHT22;13143;50.924;5.320;2023-03-25T02:55:05;10.90;99.90
25192;DHT22;13143;50.924;5.320;2023-03-25T02:57:39;10.90;99.90
25192;DHT22;13143;50.924;5.320;2023-03-25T03:00:07;10.90;99.90
25192;DHT22;13143;50.924;5.320;2023-03-25T03:02:45;10.90;99.90
25192;DHT22;13143;50.924;5.320;2023-03-25T03:05:32;10.90;99.90
25192;DHT22;13143;50.924;5.320;2023-03-25T03:16:06;10.90;99.90
25192;DHT22;13143;50.924;5.320;2023-03-25T03:21:57;10.90;99.90
25192;DHT22;13143;50.924;5.320;2023-03-25T03:24:32;10.80;99.90
25192;DHT22;13143;50.924;5.320;2023-03-25T03:30:17;10.80;99.90
25192;DHT22;13143;50.924;5.320;2023-03-25T03:35:07;10.80;99.90
25192;DHT22;13143;50.924;5.320;2023-03-25T03:37:38;10.80;99.90
25192;DHT22;13143;50.924;5.320;2023-03-25T03:40:08;10.80;99.90
25192;DHT22;13143;50.924;5.320;2023-03-25T03:42:39;10.80;99.90
25192;DHT22;13143;50.924;5.320;2023-03-25T03:45:12;10.80;99.90
25192;DHT22;13143;50.924;5.320;2023-03-25T03:47:43;10.80;99.90
25192;DHT22;13143;50.924;5.320;2023-03-25T03:50:16;10.80;99.90
25192;DHT22;13143;50.924;5.320;2023-03-25T03:55:25;10.80;99.90
25192;DHT22;13143;50.924;5.320;2023-03-25T03:58:00;10.80;99.90
25192;DHT22;13143;50.924;5.320;2023-03-25T04:00:55;10.80;99.90
25192;DHT22;13143;50.924;5.320;2023-03-25T04:03:28;10.80;99.90
25192;DHT22;13143;50.924;5.320;2023-03-25T04:06:00;10.80;99.90
25192;DHT22;13143;50.924;5.320;2023-03-25T04:11:22;10.80;99.90
25192;DHT22;13143;50.924;5.320;2023-03-25T04:13:51;10.80;99.90
25192;DHT22;13143;50.924;5.320;2023-03-25T04:16:18;10.80;99.90
25192;DHT22;13143;50.924;5.320;2023-03-25T04:18:43;10.80;99.90
25192;DHT22;13143;50.924;5.320;2023-03-25T04:21:12;10.80;99.90
25192;DHT22;13143;50.924;5.320;2023-03-25T04:23:40;10.80;99.90
25192;DHT22;13143;50.924;5.320;2023-03-25T04:26:06;10.80;99.90
25192;DHT22;13143;50.924;5.320;2023-03-25T04:28:32;10.80;99.90
25192;DHT22;13143;50.924;5.320;2023-03-25T04:30:57;10.80;99.90
25192;DHT22;13143;50.924;5.320;2023-03-25T04:33:25;10.80;99.90
25192;DHT22;13143;50.924;5.320;2023-03-25T04:35:51;10.70;99.90
25192;DHT22;13143;50.924;5.320;2023-03-25T04:38:18;10.80;99.90
25192;DHT22;13143;50.924;5.320;2023-03-25T04:40:44;10.80;99.90
25192;DHT22;13143;50.924;5.320;2023-03-25T04:43:15;10.80;99.90
25192;DHT22;13143;50.924;5.320;2023-03-25T04:45:41;10.80;99.90
25192;DHT22;13143;50.924;5.320;2023-03-25T04:48:21;10.80;99.90
25192;DHT22;13143;50.924;5.320;2023-03-25T04:50:48;10.80;99.90
25192;DHT22;13143;50.924;5.320;2023-03-25T04:53:16;10.80;99.90
25192;DHT22;13143;50.924;5.320;2023-03-25T04:55:42;10.80;99.90
25192;DHT22;13143;50.924;5.320;2023-03-25T04:58:15;10.80;99.90
25192;DHT22;13143;50.924;5.320;2023-03-25T05:00:45;10.80;99.90
25192;DHT22;13143;50.924;5.320;2023-03-25T05:03:13;10.80;99.90
25192;DHT22;13143;50.924;5.320;2023-03-25T05:05:40;10.70;99.90
25192;DHT22;13143;50.924;5.320;2023-03-25T05:08:06;10.70;99.90
25192;DHT22;13143;50.924;5.320;2023-03-25T05:10:32;10.70;99.90
25192;DHT22;13143;50.924;5.320;2023-03-25T05:13:05;10.70;99.90
25192;DHT22;13143;50.924;5.320;2023-03-25T05:15:32;10.70;99.90
25192;DHT22;13143;50.924;5.320;2023-03-25T05:18:15;10.70;99.90
25192;DHT22;13143;50.924;5.320;2023-03-25T05:20:43;10.70;99.90
25192;DHT22;13143;50.924;5.320;2023-03-25T05:23:11;10.70;99.90
25192;DHT22;13143;50.924;5.320;2023-03-25T05:25:41;10.70;99.90
25192;DHT22;13143;50.924;5.320;2023-03-25T05:28:07;10.70;99.90
25192;DHT22;13143;50.924;5.320;2023-03-25T05:30:35;10.70;99.90
25192;DHT22;13143;50.924;5.320;2023-03-25T05:33:07;10.70;99.90
25192;DHT22;13143;50.924;5.320;2023-03-25T05:35:35;10.70;99.90
25192;DHT22;13143;50.924;5.320;2023-03-25T05:38:01;10.70;99.90
25192;DHT22;13143;50.924;5.320;2023-03-25T05:40:27;10.70;99.90
25192;DHT22;13143;50.924;5.320;2023-03-25T05:42:52;10.70;99.90
25192;DHT22;13143;50.924;5.320;2023-03-25T05:45:19;10.70;99.90
25192;DHT22;13143;50.924;5.320;2023-03-25T05:47:45;10.70;99.90
25192;DHT22;13143;50.924;5.320;2023-03-25T05:50:11;10.70;99.90
25192;DHT22;13143;50.924;5.320;2023-03-25T05:52:39;10.70;99.90
25192;DHT22;13143;50.924;5.320;2023-03-25T05:55:16;10.70;99.90
25192;DHT22;13143;50.924;5.320;2023-03-25T05:57:42;10.70;99.90
25192;DHT22;13143;50.924;5.320;2023-03-25T06:00:09;10.70;99.90
25192;DHT22;13143;50.924;5.320;2023-03-25T06:02:40;10.70;99.90
25192;DHT22;13143;50.924;5.320;2023-03-25T06:05:10;10.70;99.90
25192;DHT22;13143;50.924;5.320;2023-03-25T06:07:39;10.70;99.90
25192;DHT22;13143;50.924;5.320;2023-03-25T06:10:08;10.70;99.90
25192;DHT22;13143;50.924;5.320;2023-03-25T06:12:35;10.70;99.90
25192;DHT22;13143;50.924;5.320;2023-03-25T06:15:05;10.70;99.90
25192;DHT22;13143;50.924;5.320;2023-03-25T06:17:31;10.70;99.90
25192;DHT22;13143;50.924;5.320;2023-03-25T06:19:58;10.70;99.90
25192;DHT22;13143;50.924;5.320;2023-03-25T06:22:25;10.70;99.90
25192;DHT22;13143;50.924;5.320;2023-03-25T06:24:51;10.70;99.90
25192;DHT22;13143;50.924;5.320;2023-03-25T06:27:18;10.70;99.90
25192;DHT22;13143;50.924;5.320;2023-03-25T06:29:44;10.70;99.90
25192;DHT22;13143;50.924;5.320;2023-03-25T06:32:12;10.70;99.90
25192;DHT22;13143;50.924;5.320;2023-03-25T06:34:38;10.70;99.90
25192;DHT22;13143;50.924;5.320;2023-03-25T06:37:07;10.70;99.90
25192;DHT22;13143;50.924;5.320;2023-03-25T06:39:33;10.70;99.90
25192;DHT22;13143;50.924;5.320;2023-03-25T06:42:03;10.70;99.90
25192;DHT22;13143;50.924;5.320;2023-03-25T06:44:29;10.70;99.90
25192;DHT22;13143;50.924;5.320;2023-03-25T06:46:55;10.70;99.90
25192;DHT22;13143;50.924;5.320;2023-03-25T06:49:21;10.70;99.90
25192;DHT22;13143;50.924;5.320;2023-03-25T06:51:47;10.70;99.90
25192;DHT22;13143;50.924;5.320;2023-03-25T06:54:13;10.70;99.90
25192;DHT22;13143;50.924;5.320;2023-03-25T06:56:39;10.70;99.90
25192;DHT22;13143;50.924;5.320;2023-03-25T06:59:05;10.70;99.90
25192;DHT22;13143;50.924;5.320;2023-03-25T07:01:31;10.70;99.90
25192;DHT22;13143;50.924;5.320;2023-03-25T07:03:56;10.70;99.90
25192;DHT22;13143;50.924;5.320;2023-03-25T07:06:23;10.70;99.90
25192;DHT22;13143;50.924;5.320;2023-03-25T07:08:49;10.70;99.90
25192;DHT22;13143;50.924;5.320;2023-03-25T07:11:17;10.70;99.90
25192;DHT22;13143;50.924;5.320;2023-03-25T07:13:44;10.70;99.90
25192;DHT22;13143;50.924;5.320;2023-03-25T07:16:10;10.70;99.90
25192;DHT22;13143;50.924;5.320;2023-03-25T07:18:36;10.70;99.90
25192;DHT22;13143;50.924;5.320;2023-03-25T07:21:02;10.80;99.90
25192;DHT22;13143;50.924;5.320;2023-03-25T07:23:28;10.80;99.90
25192;DHT22;13143;50.924;5.320;2023-03-25T07:25:54;10.80;99.90
25192;DHT22;13143;50.924;5.320;2023-03-25T07:28:21;10.80;99.90
25192;DHT22;13143;50.924;5.320;2023-03-25T07:30:47;10.80;99.90
25192;DHT22;13143;50.924;5.320;2023-03-25T07:33:13;10.80;99.90
25192;DHT22;13143;50.924;5.320;2023-03-25T07:35:38;10.80;99.90
25192;DHT22;13143;50.924;5.320;2023-03-25T07:38:04;10.80;99.90
25192;DHT22;13143;50.924;5.320;2023-03-25T07:40:30;10.80;99.90
25192;DHT22;13143;50.924;5.320;2023-03-25T07:42:55;10.80;99.90
25192;DHT22;13143;50.924;5.320;2023-03-25T07:45:22;10.80;99.90
25192;DHT22;13143;50.924;5.320;2023-03-25T07:47:48;10.80;99.90
25192;DHT22;13143;50.924;5.320;2023-03-25T07:50:18;10.80;99.90
25192;DHT22;13143;50.924;5.320;2023-03-25T07:52:44;10.80;99.90
25192;DHT22;13143;50.924;5.320;2023-03-25T07:55:10;10.80;99.90
25192;DHT22;13143;50.924;5.320;2023-03-25T07:57:35;10.90;99.90
25192;DHT22;13143;50.924;5.320;2023-03-25T08:00:01;10.80;99.90
25192;DHT22;13143;50.924;5.320;2023-03-25T08:02:29;10.90;99.90
25192;DHT22;13143;50.924;5.320;2023-03-25T08:04:55;10.90;99.90
25192;DHT22;13143;50.924;5.320;2023-03-25T08:07:22;10.90;99.90
25192;DHT22;13143;50.924;5.320;2023-03-25T08:09:47;10.90;99.90
25192;DHT22;13143;50.924;5.320;2023-03-25T08:12:13;10.90;99.90
25192;DHT22;13143;50.924;5.320;2023-03-25T08:14:39;11.00;99.90
25192;DHT22;13143;50.924;5.320;2023-03-25T08:17:05;10.90;99.90
25192;DHT22;13143;50.924;5.320;2023-03-25T08:19:31;10.90;99.90
25192;DHT22;13143;50.924;5.320;2023-03-25T08:21:57;11.00;99.90
25192;DHT22;13143;50.924;5.320;2023-03-25T08:24:23;11.00;99.90
25192;DHT22;13143;50.924;5.320;2023-03-25T08:26:51;11.00;99.90
25192;DHT22;13143;50.924;5.320;2023-03-25T08:29:18;11.00;99.90
25192;DHT22;13143;50.924;5.320;2023-03-25T08:31:44;11.00;99.90
25192;DHT22;13143;50.924;5.320;2023-03-25T08:34:11;11.00;99.90
25192;DHT22;13143;50.924;5.320;2023-03-25T08:36:37;11.10;99.90
25192;DHT22;13143;50.924;5.320;2023-03-25T08:39:04;11.10;99.90
25192;DHT22;13143;50.924;5.320;2023-03-25T08:41:34;11.10;99.90
25192;DHT22;13143;50.924;5.320;2023-03-25T08:44:01;11.10;99.90
25192;DHT22;13143;50.924;5.320;2023-03-25T08:46:26;11.10;99.90
25192;DHT22;13143;50.924;5.320;2023-03-25T08:48:52;11.10;99.90
25192;DHT22;13143;50.924;5.320;2023-03-25T08:51:18;11.10;99.90
25192;DHT22;13143;50.924;5.320;2023-03-25T08:53:43;11.10;99.90
25192;DHT22;13143;50.924;5.320;2023-03-25T08:56:09;11.20;99.90
25192;DHT22;13143;50.924;5.320;2023-03-25T08:58:35;11.20;99.90
25192;DHT22;13143;50.924;5.320;2023-03-25T09:01:01;11.20;99.90
25192;DHT22;13143;50.924;5.320;2023-03-25T09:03:27;11.20;99.90
25192;DHT22;13143;50.924;5.320;2023-03-25T09:05:52;11.20;99.90
25192;DHT22;13143;50.924;5.320;2023-03-25T09:08:18;11.20;99.90
25192;DHT22;13143;50.924;5.320;2023-03-25T09:10:44;11.20;99.90
25192;DHT22;13143;50.924;5.320;2023-03-25T09:13:10;11.30;99.90
25192;DHT22;13143;50.924;5.320;2023-03-25T09:15:35;11.30;99.90
25192;DHT22;13143;50.924;5.320;2023-03-25T09:18:01;11.30;99.90
25192;DHT22;13143;50.924;5.320;2023-03-25T09:20:27;11.30;99.90
25192;DHT22;13143;50.924;5.320;2023-03-25T09:22:53;11.30;99.90
25192;DHT22;13143;50.924;5.320;2023-03-25T09:25:18;11.30;99.90
25192;DHT22;13143;50.924;5.320;2023-03-25T09:27:44;11.40;99.90
25192;DHT22;13143;50.924;5.320;2023-03-25T09:30:10;11.40;99.90
25192;DHT22;13143;50.924;5.320;2023-03-25T09:32:36;11.40;99.90
25192;DHT22;13143;50.924;5.320;2023-03-25T09:35:02;11.40;99.90
25192;DHT22;13143;50.924;5.320;2023-03-25T09:37:28;11.40;99.90
25192;DHT22;13143;50.924;5.320;2023-03-25T09:39:54;11.50;99.90
25192;DHT22;13143;50.924;5.320;2023-03-25T09:45:30;11.50;99.90
25192;DHT22;13143;50.924;5.320;2023-03-25T09:50:53;11.50;99.90
25192;DHT22;13143;50.924;5.320;2023-03-25T09:53:26;11.60;99.90
25192;DHT22;13143;50.924;5.320;2023-03-25T09:55:53;11.60;99.90
25192;DHT22;13143;50.924;5.320;2023-03-25T09:58:33;11.60;99.90
25192;DHT22;13143;50.924;5.320;2023-03-25T10:01:31;11.60;99.90
25192;DHT22;13143;50.924;5.320;2023-03-25T10:06:31;11.60;99.90
25192;DHT22;13143;50.924;5.320;2023-03-25T10:15:12;11.70;99.90
25192;DHT22;13143;50.924;5.320;2023-03-25T10:20:37;11.70;99.90
25192;DHT22;13143;50.924;5.320;2023-03-25T10:23:44;11.70;99.90
25192;DHT22;13143;50.924;5.320;2023-03-25T10:26:38;11.70;99.90
25192;DHT22;13143;50.924;5.320;2023-03-25T10:29:13;11.70;99.90
25192;DHT22;13143;50.924;5.320;2023-03-25T10:31:52;11.70;99.90
25192;DHT22;13143;50.924;5.320;2023-03-25T10:34:22;11.70;99.90
25192;DHT22;13143;50.924;5.320;2023-03-25T10:36:54;11.70;99.90
25192;DHT22;13143;50.924;5.320;2023-03-25T10:39:23;11.70;99.90
25192;DHT22;13143;50.924;5.320;2023-03-25T10:41:58;11.70;99.90
25192;DHT22;13143;50.924;5.320;2023-03-25T10:44:25;11.70;99.90
25192;DHT22;13143;50.924;5.320;2023-03-25T10:47:05;11.80;99.90
25192;DHT22;13143;50.924;5.320;2023-03-25T10:49:32;11.80;99.90
25192;DHT22;13143;50.924;5.320;2023-03-25T10:51:58;11.70;99.90
25192;DHT22;13143;50.924;5.320;2023-03-25T10:54:40;11.80;99.90
25192;DHT22;13143;50.924;5.320;2023-03-25T10:57:24;11.80;99.90
25192;DHT22;13143;50.924;5.320;2023-03-25T11:00:07;11.80;99.90
25192;DHT22;13143;50.924;5.320;2023-03-25T11:02:43;11.80;99.90
25192;DHT22;13143;50.924;5.320;2023-03-25T11:05:10;11.80;99.90
25192;DHT22;13143;50.924;5.320;2023-03-25T11:07:53;11.80;99.90
25192;DHT22;13143;50.924;5.320;2023-03-25T11:10:28;11.80;99.90
25192;DHT22;13143;50.924;5.320;2023-03-25T11:12:54;11.80;99.90
25192;DHT22;13143;50.924;5.320;2023-03-25T11:15:23;11.80;99.90
25192;DHT22;13143;50.924;5.320;2023-03-25T11:20:46;11.90;99.90
25192;DHT22;13143;50.924;5.320;2023-03-25T11:23:58;11.90;99.90
25192;DHT22;13143;50.924;5.320;2023-03-25T11:26:11;11.90;99.90
25192;DHT22;13143;50.924;5.320;2023-03-25T11:28:43;11.90;99.90
25192;DHT22;13143;50.924;5.320;2023-03-25T11:33:42;12.00;99.90
25192;DHT22;13143;50.924;5.320;2023-03-25T11:36:26;12.00;99.90
25192;DHT22;13143;50.924;5.320;2023-03-25T11:38:57;12.00;99.90
25192;DHT22;13143;50.924;5.320;2023-03-25T11:41:27;12.10;99.90
25192;DHT22;13143;50.924;5.320;2023-03-25T11:43:53;12.10;99.90
25192;DHT22;13143;50.924;5.320;2023-03-25T11:46:20;12.10;99.90
25192;DHT22;13143;50.924;5.320;2023-03-25T11:48:46;12.10;99.90
25192;DHT22;13143;50.924;5.320;2023-03-25T11:53:46;12.20;99.90
25192;DHT22;13143;50.924;5.320;2023-03-25T11:56:16;12.20;99.90
25192;DHT22;13143;50.924;5.320;2023-03-25T11:58:46;12.20;99.90
25192;DHT22;13143;50.924;5.320;2023-03-25T12:01:25;12.30;99.90
25192;DHT22;13143;50.924;5.320;2023-03-25T12:04:11;12.30;99.90
25192;DHT22;13143;50.924;5.320;2023-03-25T12:06:55;12.30;99.90
25192;DHT22;13143;50.924;5.320;2023-03-25T12:09:25;12.30;99.90
25192;DHT22;13143;50.924;5.320;2023-03-25T12:17:17;12.40;99.90
25192;DHT22;13143;50.924;5.320;2023-03-25T12:26:10;12.40;99.90
25192;DHT22;13143;50.924;5.320;2023-03-25T12:37:04;12.50;99.90
25192;DHT22;13143;50.924;5.320;2023-03-25T13:04:04;12.30;99.90
25192;DHT22;13143;50.924;5.320;2023-03-25T13:12:10;12.40;99.90
25192;DHT22;13143;50.924;5.320;2023-03-25T13:14:47;12.30;99.90
25192;DHT22;13143;50.924;5.320;2023-03-25T13:17:25;12.30;99.90
25192;DHT22;13143;50.924;5.320;2023-03-25T13:19:55;12.30;99.90
25192;DHT22;13143;50.924;5.320;2023-03-25T13:22:26;12.40;99.90
25192;DHT22;13143;50.924;5.320;2023-03-25T13:24:57;12.40;99.90
25192;DHT22;13143;50.924;5.320;2023-03-25T13:27:24;12.30;99.90
25192;DHT22;13143;50.924;5.320;2023-03-25T13:29:56;12.40;99.90
25192;DHT22;13143;50.924;5.320;2023-03-25T13:32:31;12.40;99.90
25192;DHT22;13143;50.924;5.320;2023-03-25T13:35:28;12.30;99.90
25192;DHT22;13143;50.924;5.320;2023-03-25T13:37:58;12.40;99.90
25192;DHT22;13143;50.924;5.320;2023-03-25T13:40:29;12.40;99.90
25192;DHT22;13143;50.924;5.320;2023-03-25T13:43:04;12.40;99.90
25192;DHT22;13143;50.924;5.320;2023-03-25T13:48:46;12.40;99.90
25192;DHT22;13143;50.924;5.320;2023-03-25T13:51:13;12.40;99.90
25192;DHT22;13143;50.924;5.320;2023-03-25T13:54:07;12.40;99.90
25192;DHT22;13143;50.924;5.320;2023-03-25T13:59:50;12.40;99.90
25192;DHT22;13143;50.924;5.320;2023-03-25T14:04:59;12.40;99.90
25192;DHT22;13143;50.924;5.320;2023-03-25T14:13:03;12.40;99.90
25192;DHT22;13143;50.924;5.320;2023-03-25T14:15:35;12.40;99.90
25192;DHT22;13143;50.924;5.320;2023-03-25T14:18:03;12.40;99.90
25192;DHT22;13143;50.924;5.320;2023-03-25T14:20:37;12.40;99.90
25192;DHT22;13143;50.924;5.320;2023-03-25T14:23:06;12.40;99.90
25192;DHT22;13143;50.924;5.320;2023-03-25T14:25:45;12.40;99.90
25192;DHT22;13143;50.924;5.320;2023-03-25T14:28:18;12.40;99.90
25192;DHT22;13143;50.924;5.320;2023-03-25T14:31:08;12.40;99.90
25192;DHT22;13143;50.924;5.320;2023-03-25T14:39:09;12.50;99.90
25192;DHT22;13143;50.924;5.320;2023-03-25T14:44:34;12.60;99.90
25192;DHT22;13143;50.924;5.320;2023-03-25T14:52:40;12.70;99.90
25192;DHT22;13143;50.924;5.320;2023-03-25T14:55:17;12.70;99.90
25192;DHT22;13143;50.924;5.320;2023-03-25T14:57:43;12.70;99.90
25192;DHT22;13143;50.924;5.320;2023-03-25T15:00:30;12.80;99.90
25192;DHT22;13143;50.924;5.320;2023-03-25T15:03:03;12.80;99.90
25192;DHT22;13143;50.924;5.320;2023-03-25T15:05:31;12.80;99.90
25192;DHT22;13143;50.924;5.320;2023-03-25T15:10:37;12.80;99.90
25192;DHT22;13143;50.924;5.320;2023-03-25T15:13:11;12.90;99.90
25192;DHT22;13143;50.924;5.320;2023-03-25T15:18:10;12.90;99.90
25192;DHT22;13143;50.924;5.320;2023-03-25T15:20:36;13.00;99.90
25192;DHT22;13143;50.924;5.320;2023-03-25T15:25:48;13.00;99.90
25192;DHT22;13143;50.924;5.320;2023-03-25T15:28:31;13.10;99.90
25192;DHT22;13143;50.924;5.320;2023-03-25T15:37:03;13.10;99.90
25192;DHT22;13143;50.924;5.320;2023-03-25T15:39:46;13.20;99.90
25192;DHT22;13143;50.924;5.320;2023-03-25T15:51:16;13.20;99.90
25192;DHT22;13143;50.924;5.320;2023-03-25T15:56:33;13.30;99.90
25192;DHT22;13143;50.924;5.320;2023-03-25T15:59:05;13.30;99.90
25192;DHT22;13143;50.924;5.320;2023-03-25T16:01:34;13.30;99.90
25192;DHT22;13143;50.924;5.320;2023-03-25T16:04:14;13.30;99.90
25192;DHT22;13143;50.924;5.320;2023-03-25T16:06:43;13.30;99.90
25192;DHT22;13143;50.924;5.320;2023-03-25T16:09:23;13.30;99.90
25192;DHT22;13143;50.924;5.320;2023-03-25T16:11:51;13.30;99.90
25192;DHT22;13143;50.924;5.320;2023-03-25T16:14:20;13.30;99.90
25192;DHT22;13143;50.924;5.320;2023-03-25T16:16:50;13.30;99.90
25192;DHT22;13143;50.924;5.320;2023-03-25T16:19:20;13.30;99.90
25192;DHT22;13143;50.924;5.320;2023-03-25T16:21:48;13.30;99.90
25192;DHT22;13143;50.924;5.320;2023-03-25T16:24:15;13.30;99.90
25192;DHT22;13143;50.924;5.320;2023-03-25T16:26:47;13.30;99.90
25192;DHT22;13143;50.924;5.320;2023-03-25T16:29:22;13.30;99.90
25192;DHT22;13143;50.924;5.320;2023-03-25T16:32:00;13.30;99.90
25192;DHT22;13143;50.924;5.320;2023-03-25T16:34:32;13.40;99.90
25192;DHT22;13143;50.924;5.320;2023-03-25T16:36:58;13.40;99.90
25192;DHT22;13143;50.924;5.320;2023-03-25T16:39:24;13.40;99.90
25192;DHT22;13143;50.924;5.320;2023-03-25T16:42:12;13.40;99.90
25192;DHT22;13143;50.924;5.320;2023-03-25T16:44:47;13.40;99.90
25192;DHT22;13143;50.924;5.320;2023-03-25T16:47:14;13.40;99.90
25192;DHT22;13143;50.924;5.320;2023-03-25T16:49:41;13.40;99.90
25192;DHT22;13143;50.924;5.320;2023-03-25T16:52:13;13.40;99.90
25192;DHT22;13143;50.924;5.320;2023-03-25T16:57:38;13.40;99.90
25192;DHT22;13143;50.924;5.320;2023-03-25T17:02:42;13.40;99.90
25192;DHT22;13143;50.924;5.320;2023-03-25T17:05:20;13.40;99.90
25192;DHT22;13143;50.924;5.320;2023-03-25T17:07:49;13.40;99.90
25192;DHT22;13143;50.924;5.320;2023-03-25T17:10:21;13.40;99.90
25192;DHT22;13143;50.924;5.320;2023-03-25T17:13:01;13.30;99.90
25192;DHT22;13143;50.924;5.320;2023-03-25T17:15:30;13.30;99.90
25192;DHT22;13143;50.924;5.320;2023-03-25T17:17:59;13.30;99.90
25192;DHT22;13143;50.924;5.320;2023-03-25T17:20:31;13.30;99.90
25192;DHT22;13143;50.924;5.320;2023-03-25T17:23:05;13.30;99.90
25192;DHT22;13143;50.924;5.320;2023-03-25T17:25:35;13.30;99.90
25192;DHT22;13143;50.924;5.320;2023-03-25T17:28:38;13.30;99.90
25192;DHT22;13143;50.924;5.320;2023-03-25T17:33:51;13.30;99.90
25192;DHT22;13143;50.924;5.320;2023-03-25T17:36:19;13.30;99.90
25192;DHT22;13143;50.924;5.320;2023-03-25T17:38:46;13.20;99.90
25192;DHT22;13143;50.924;5.320;2023-03-25T17:41:17;13.30;99.90
25192;DHT22;13143;50.924;5.320;2023-03-25T17:43:48;13.20;99.90
25192;DHT22;13143;50.924;5.320;2023-03-25T17:46:18;13.20;99.90
25192;DHT22;13143;50.924;5.320;2023-03-25T17:48:48;13.20;99.90
25192;DHT22;13143;50.924;5.320;2023-03-25T17:51:15;13.20;99.90
25192;DHT22;13143;50.924;5.320;2023-03-25T17:53:42;13.20;99.90
25192;DHT22;13143;50.924;5.320;2023-03-25T17:56:12;13.20;99.90
25192;DHT22;13143;50.924;5.320;2023-03-25T17:58:38;13.20;99.90
25192;DHT22;13143;50.924;5.320;2023-03-25T18:01:04;13.20;99.90
25192;DHT22;13143;50.924;5.320;2023-03-25T18:03:33;13.20;99.90
25192;DHT22;13143;50.924;5.320;2023-03-25T18:05:59;13.20;99.90
25192;DHT22;13143;50.924;5.320;2023-03-25T18:08:26;13.10;99.90
25192;DHT22;13143;50.924;5.320;2023-03-25T18:10:53;13.20;99.90
25192;DHT22;13143;50.924;5.320;2023-03-25T18:13:19;13.10;99.90
25192;DHT22;13143;50.924;5.320;2023-03-25T18:15:52;13.10;99.90
25192;DHT22;13143;50.924;5.320;2023-03-25T18:18:23;13.10;99.90
25192;DHT22;13143;50.924;5.320;2023-03-25T18:20:50;13.10;99.90
25192;DHT22;13143;50.924;5.320;2023-03-25T18:23:16;13.10;99.90
25192;DHT22;13143;50.924;5.320;2023-03-25T18:25:42;13.10;99.90
25192;DHT22;13143;50.924;5.320;2023-03-25T18:28:10;13.10;99.90
25192;DHT22;13143;50.924;5.320;2023-03-25T18:30:51;13.10;99.90
25192;DHT22;13143;50.924;5.320;2023-03-25T18:33:18;13.00;99.90
25192;DHT22;13143;50.924;5.320;2023-03-25T18:35:44;13.00;99.90
25192;DHT22;13143;50.924;5.320;2023-03-25T18:38:21;13.00;99.90
25192;DHT22;13143;50.924;5.320;2023-03-25T18:40:48;13.00;99.90
25192;DHT22;13143;50.924;5.320;2023-03-25T18:43:14;13.00;99.90
25192;DHT22;13143;50.924;5.320;2023-03-25T18:45:40;13.00;99.90
25192;DHT22;13143;50.924;5.320;2023-03-25T18:48:06;13.00;99.90
25192;DHT22;13143;50.924;5.320;2023-03-25T18:50:37;13.00;99.90
25192;DHT22;13143;50.924;5.320;2023-03-25T18:53:04;12.90;99.90